createdAt,value
2023-05-09T00:02:03.317Z,10.63
2023-05-09T00:04:35.887Z,9.93
2023-05-09T00:07:10.387Z,9.35
2023-05-09T00:09:43.044Z,9.98
2023-05-09T00:12:15.647Z,9.00
2023-05-09T00:14:51.648Z,10.02
2023-05-09T00:17:24.596Z,8.70
2023-05-09T00:19:57.043Z,8.60
2023-05-09T00:22:29.482Z,9.80
2023-05-09T00:25:01.960Z,8.65
2023-05-09T00:27:34.467Z,9.15
2023-05-09T00:30:07.813Z,9.20
2023-05-09T00:32:41.492Z,8.93
2023-05-09T00:35:14.142Z,8.35
2023-05-09T00:37:46.830Z,8.73
2023-05-09T00:40:19.282Z,9.45
2023-05-09T00:42:51.721Z,8.80
2023-05-09T00:45:24.630Z,8.70
2023-05-09T00:47:57.661Z,7.97
2023-05-09T00:50:31.093Z,8.80
2023-05-09T00:53:04.745Z,8.70
2023-05-09T00:55:37.242Z,7.68
2023-05-09T00:58:09.740Z,7.75
2023-05-09T01:00:43.005Z,8.13
2023-05-09T01:03:15.755Z,7.50
2023-05-09T01:06:26.875Z,7.03
2023-05-09T01:09:05.309Z,7.90
2023-05-09T01:12:37.219Z,7.13
2023-05-09T01:15:16.909Z,6.88
2023-05-09T01:18:03.704Z,7.03
2023-05-09T01:20:46.436Z,7.60
2023-05-09T01:23:44.223Z,7.50
2023-05-09T01:26:20.071Z,6.95
2023-05-09T01:29:17.660Z,6.95
2023-05-09T01:31:51.643Z,6.95
2023-05-09T01:34:27.676Z,7.55
2023-05-09T01:37:02.213Z,6.57
2023-05-09T01:39:38.596Z,7.20
2023-05-09T01:42:12.685Z,8.27
2023-05-09T01:44:47.164Z,7.55
2023-05-09T01:47:20.117Z,7.88
2023-05-09T01:49:53.924Z,7.47
2023-05-09T01:52:27.103Z,8.27
2023-05-09T01:55:02.422Z,7.65
2023-05-09T01:57:36.563Z,7.25
2023-05-09T02:00:10.656Z,7.80
2023-05-09T02:02:43.754Z,8.05
2023-05-09T02:05:18.276Z,7.35
2023-05-09T02:07:51.086Z,7.97
2023-05-09T02:10:25.506Z,7.85
2023-05-09T02:12:57.996Z,8.25
2023-05-09T02:15:30.984Z,8.40
2023-05-09T02:18:03.573Z,7.32
2023-05-09T02:20:36.194Z,8.00
2023-05-09T02:23:09.227Z,7.35
2023-05-09T02:25:41.649Z,8.15
2023-05-09T02:28:14.930Z,7.90
2023-05-09T02:30:49.792Z,8.00
2023-05-09T02:33:23.547Z,6.85
2023-05-09T02:35:57.202Z,7.82
2023-05-09T02:38:29.706Z,7.07
2023-05-09T02:41:02.181Z,7.88
2023-05-09T02:43:34.550Z,7.80
2023-05-09T02:46:07.994Z,7.70
2023-05-09T02:48:40.558Z,8.20
2023-05-09T02:51:12.970Z,7.75
2023-05-09T02:53:45.660Z,7.15
2023-05-09T02:56:18.094Z,8.68
2023-05-09T02:58:51.489Z,7.95
2023-05-09T03:01:24.160Z,8.57
2023-05-09T03:03:56.760Z,7.60
2023-05-09T03:06:29.236Z,7.75
2023-05-09T03:09:01.756Z,7.97
2023-05-09T03:11:36.615Z,7.97
2023-05-09T03:14:10.692Z,8.50
2023-05-09T03:16:43.217Z,8.48
2023-05-09T03:19:15.765Z,8.38
2023-05-09T03:21:48.853Z,8.30
2023-05-09T03:24:21.632Z,7.65
2023-05-09T03:26:54.674Z,8.88
2023-05-09T03:29:27.551Z,7.97
2023-05-09T03:31:59.988Z,7.90
2023-05-09T03:34:32.481Z,8.35
2023-05-09T03:37:04.969Z,8.20
2023-05-09T03:39:37.404Z,8.43
2023-05-09T03:42:09.922Z,8.48
2023-05-09T03:44:42.413Z,8.73
2023-05-09T03:47:14.769Z,8.48
2023-05-09T03:49:47.198Z,7.75
2023-05-09T03:52:19.589Z,7.93
2023-05-09T03:54:52.099Z,8.43
2023-05-09T03:57:24.520Z,7.68
2023-05-09T03:59:56.955Z,8.25
2023-05-09T04:02:29.601Z,7.35
2023-05-09T04:05:02.378Z,6.78
2023-05-09T04:07:35.057Z,8.77
2023-05-09T04:10:08.550Z,7.57
2023-05-09T04:12:41.221Z,7.75
2023-05-09T04:15:13.901Z,7.03
2023-05-09T04:17:46.470Z,7.18
2023-05-09T04:20:18.938Z,7.65
2023-05-09T04:22:51.339Z,6.50
2023-05-09T04:25:23.766Z,6.65
2023-05-09T04:27:56.626Z,6.80
2023-05-09T04:30:29.632Z,5.75
2023-05-09T04:33:02.179Z,6.10
2023-05-09T04:35:34.639Z,6.60
2023-05-09T04:38:07.208Z,6.18
2023-05-09T04:40:39.631Z,6.07
2023-05-09T04:43:12.130Z,6.25
2023-05-09T04:45:45.340Z,6.32
2023-05-09T04:48:17.756Z,6.55
2023-05-09T04:50:50.400Z,6.75
2023-05-09T04:53:22.811Z,6.13
2023-05-09T04:55:55.317Z,6.82
2023-05-09T04:58:27.780Z,6.53
2023-05-09T05:01:00.280Z,6.55
2023-05-09T05:03:33.452Z,6.15
2023-05-09T05:06:06.515Z,6.18
2023-05-09T05:08:38.937Z,5.82
2023-05-09T05:11:11.391Z,6.13
2023-05-09T05:13:44.440Z,5.72
2023-05-09T05:16:16.938Z,6.30
2023-05-09T05:18:49.454Z,6.53
2023-05-09T05:21:21.972Z,6.45
2023-05-09T05:23:54.410Z,6.60
2023-05-09T05:26:27.402Z,6.35
2023-05-09T05:29:00.736Z,6.30
2023-05-09T05:31:33.217Z,6.55
2023-05-09T05:34:05.619Z,5.88
2023-05-09T05:36:38.103Z,6.65
2023-05-09T05:39:10.512Z,6.55
2023-05-09T05:41:42.891Z,6.13
2023-05-09T05:44:15.284Z,6.05
2023-05-09T05:46:47.695Z,6.93
2023-05-09T05:49:20.224Z,7.43
2023-05-09T05:51:52.677Z,7.00
2023-05-09T05:54:25.374Z,7.32
2023-05-09T05:56:57.745Z,6.35
2023-05-09T05:59:30.270Z,6.55
2023-05-09T06:02:02.689Z,6.05
2023-05-09T06:04:35.302Z,6.07
2023-05-09T06:07:07.846Z,6.25
2023-05-09T06:09:40.394Z,6.05
2023-05-09T06:12:16.529Z,6.25
2023-05-09T06:14:48.989Z,5.57
2023-05-09T06:17:21.490Z,6.00
2023-05-09T06:19:53.935Z,6.40
2023-05-09T06:22:26.352Z,6.13
2023-05-09T06:24:58.782Z,5.60
2023-05-09T06:27:31.259Z,6.00
2023-05-09T06:30:14.201Z,5.97
2023-05-09T06:32:58.171Z,5.47
2023-05-09T06:35:30.762Z,5.82
2023-05-09T06:38:03.256Z,5.88
2023-05-09T06:40:35.942Z,5.55
2023-05-09T06:43:08.617Z,6.13
2023-05-09T06:45:41.066Z,5.35
2023-05-09T06:48:13.452Z,6.30
2023-05-09T06:50:45.905Z,5.15
2023-05-09T06:53:18.381Z,5.35
2023-05-09T06:55:50.958Z,5.78
2023-05-09T06:58:23.606Z,5.25
2023-05-09T07:00:56.191Z,5.13
2023-05-09T07:03:28.547Z,6.07
2023-05-09T07:06:01.282Z,5.13
2023-05-09T07:08:33.724Z,5.32
2023-05-09T07:11:06.295Z,5.85
2023-05-09T07:13:38.750Z,5.18
2023-05-09T07:16:11.314Z,5.03
2023-05-09T07:18:44.046Z,5.28
2023-05-09T07:21:16.487Z,4.80
2023-05-09T07:23:48.940Z,4.53
2023-05-09T07:26:21.479Z,4.35
2023-05-09T07:28:53.850Z,4.65
2023-05-09T07:31:26.476Z,4.55
2023-05-09T07:33:59.028Z,4.35
2023-05-09T07:36:33.127Z,4.30
2023-05-09T07:39:08.046Z,4.57
2023-05-09T07:41:40.637Z,4.45
2023-05-09T07:44:13.033Z,4.68
2023-05-09T07:46:45.628Z,5.10
2023-05-09T07:49:18.080Z,4.45
2023-05-09T07:51:50.514Z,5.10
2023-05-09T07:54:23.025Z,5.15
2023-05-09T07:56:55.666Z,4.63
2023-05-09T07:59:28.105Z,4.75
2023-05-09T08:02:00.825Z,4.38
2023-05-09T08:04:33.411Z,4.00
2023-05-09T08:07:07.239Z,4.35
2023-05-09T08:09:39.702Z,4.53
2023-05-09T08:12:12.154Z,8.10
2023-05-09T08:14:44.532Z,4.38
2023-05-09T08:17:17.509Z,4.22
2023-05-09T08:19:50.989Z,3.92
2023-05-09T08:22:24.662Z,4.00
2023-05-09T08:24:57.076Z,3.65
2023-05-09T08:27:29.524Z,3.60
2023-05-09T08:30:01.940Z,4.30
2023-05-09T08:32:34.424Z,3.72
2023-05-09T08:35:08.828Z,4.03
2023-05-09T08:37:41.388Z,4.45
2023-05-09T08:40:15.222Z,3.85
2023-05-09T08:42:49.309Z,4.10
2023-05-09T08:45:29.179Z,3.97
2023-05-09T08:48:06.574Z,4.25
2023-05-09T08:50:40.202Z,4.38
2023-05-09T08:53:14.186Z,4.57
2023-05-09T08:55:47.134Z,3.88
2023-05-09T08:58:22.562Z,3.55
2023-05-09T09:00:58.234Z,4.00
2023-05-09T09:06:03.226Z,3.33
2023-05-09T09:08:35.835Z,3.10
2023-05-09T09:11:12.034Z,3.13
2023-05-09T09:13:46.671Z,2.50
2023-05-09T09:16:21.119Z,3.35
2023-05-09T09:18:58.022Z,2.83
2023-05-09T09:21:32.178Z,3.33
2023-05-09T09:24:07.775Z,2.90
2023-05-09T09:29:21.074Z,2.55
2023-05-09T09:31:55.133Z,2.72
2023-05-09T09:34:27.845Z,2.00
2023-05-09T09:37:00.406Z,2.67
2023-05-09T09:39:32.923Z,2.38
2023-05-09T09:42:14.384Z,2.30
2023-05-09T09:44:56.082Z,2.25
2023-05-09T09:47:32.594Z,2.30
2023-05-09T09:50:16.328Z,2.90
2023-05-09T09:52:51.412Z,2.60
2023-05-09T09:55:24.761Z,2.72
2023-05-09T09:57:57.214Z,2.55
2023-05-09T10:00:30.253Z,2.92
2023-05-09T10:03:03.077Z,2.65
2023-05-09T10:05:38.742Z,2.55
2023-05-09T10:08:11.440Z,2.47
2023-05-09T10:10:43.957Z,3.10
2023-05-09T10:13:16.536Z,2.80
2023-05-09T10:15:53.523Z,2.70
2023-05-09T10:18:31.507Z,2.95
2023-05-09T10:21:05.869Z,3.00
2023-05-09T10:23:41.403Z,3.20
2023-05-09T10:26:23.008Z,3.13
2023-05-09T10:28:57.998Z,3.28
2023-05-09T10:31:34.807Z,3.08
2023-05-09T10:34:10.353Z,2.85
2023-05-09T10:39:16.016Z,2.97
2023-05-09T10:41:49.844Z,2.83
2023-05-09T10:44:24.069Z,3.28
2023-05-09T10:46:56.972Z,2.90
2023-05-09T10:49:30.289Z,3.03
2023-05-09T10:52:02.708Z,2.90
2023-05-09T10:54:36.821Z,3.00
2023-05-09T10:57:09.754Z,2.53
2023-05-09T10:59:43.305Z,2.83
2023-05-09T11:02:19.814Z,3.22
2023-05-09T11:05:16.613Z,2.72
2023-05-09T11:08:18.853Z,3.25
2023-05-09T11:10:53.174Z,2.92
2023-05-09T11:13:30.259Z,2.83
2023-05-09T11:16:02.749Z,2.70
2023-05-09T11:18:35.183Z,2.47
2023-05-09T11:21:09.505Z,2.13
2023-05-09T11:23:42.861Z,2.33
2023-05-09T11:26:16.719Z,2.67
2023-05-09T11:28:54.138Z,2.22
2023-05-09T11:31:26.644Z,3.20
2023-05-09T11:34:04.692Z,2.50
2023-05-09T11:36:37.228Z,2.80
2023-05-09T11:39:13.304Z,2.53
2023-05-09T11:41:47.014Z,2.60
2023-05-09T11:44:22.195Z,2.70
2023-05-09T11:46:54.634Z,2.05
2023-05-09T11:49:28.241Z,2.33
2023-05-09T11:52:00.957Z,1.35
2023-05-09T11:54:33.435Z,1.98
2023-05-09T11:57:06.711Z,1.58
2023-05-09T11:59:39.161Z,1.92
2023-05-09T12:02:13.099Z,1.58
2023-05-09T12:04:45.634Z,1.67
2023-05-09T12:07:18.896Z,1.92
2023-05-09T12:09:52.211Z,2.08
2023-05-09T12:12:24.730Z,2.15
2023-05-09T12:14:57.209Z,1.92
2023-05-09T12:17:29.684Z,1.67
2023-05-09T12:20:04.672Z,2.00
2023-05-09T12:22:37.695Z,1.70
2023-05-09T12:25:11.802Z,1.75
2023-05-09T12:27:44.485Z,2.03
2023-05-09T12:30:18.582Z,1.80
2023-05-09T12:32:51.363Z,1.90
2023-05-09T12:35:23.935Z,1.90
2023-05-09T12:37:58.628Z,1.88
2023-05-09T12:40:31.177Z,1.67
2023-05-09T12:43:04.354Z,2.20
2023-05-09T12:45:39.168Z,1.98
2023-05-09T12:48:11.827Z,1.70
2023-05-09T12:50:47.544Z,1.90
2023-05-09T12:53:27.343Z,1.85
2023-05-09T12:56:04.651Z,1.90
2023-05-09T12:58:37.504Z,1.73
2023-05-09T13:01:10.831Z,1.70
2023-05-09T13:03:45.047Z,1.90
2023-05-09T13:06:17.740Z,1.90
2023-05-09T13:09:06.086Z,2.05
2023-05-09T13:11:38.614Z,1.80
2023-05-09T13:14:11.689Z,2.00
2023-05-09T13:16:44.915Z,2.30
2023-05-09T13:19:17.538Z,2.15
2023-05-09T13:21:50.170Z,2.08
2023-05-09T13:24:22.582Z,1.80
2023-05-09T13:26:55.046Z,2.30
2023-05-09T13:29:27.556Z,2.50
2023-05-09T13:32:00.018Z,2.10
2023-05-09T13:34:32.587Z,2.17
2023-05-09T13:37:05.160Z,2.15
2023-05-09T13:39:37.726Z,2.40
2023-05-09T13:42:10.325Z,2.28
2023-05-09T13:44:42.914Z,2.15
2023-05-09T13:47:15.401Z,2.50
2023-05-09T13:49:47.984Z,1.88
2023-05-09T13:52:20.775Z,1.92
2023-05-09T13:54:53.233Z,2.05
2023-05-09T13:57:25.673Z,2.33
2023-05-09T13:59:58.133Z,2.00
2023-05-09T14:02:30.741Z,2.05
2023-05-09T14:05:04.284Z,2.08
2023-05-09T14:07:36.784Z,2.13
2023-05-09T14:10:11.962Z,2.05
2023-05-09T14:15:18.284Z,2.85
2023-05-09T14:17:50.901Z,2.80
2023-05-09T14:20:23.512Z,3.47
2023-05-09T14:22:59.644Z,2.10
2023-05-09T14:25:32.389Z,2.30
2023-05-09T14:28:06.990Z,2.22
2023-05-09T14:30:39.582Z,1.95
2023-05-09T14:33:12.145Z,2.15
2023-05-09T14:35:44.642Z,2.42
2023-05-09T14:38:17.206Z,1.95
2023-05-09T14:40:49.733Z,2.17
2023-05-09T14:43:22.604Z,2.22
2023-05-09T14:45:57.074Z,2.10
2023-05-09T14:48:29.561Z,2.35
2023-05-09T14:51:01.984Z,2.17
2023-05-09T14:53:39.702Z,2.10
2023-05-09T14:56:12.317Z,2.25
2023-05-09T14:58:44.784Z,2.38
2023-05-09T15:01:17.287Z,2.08
2023-05-09T15:03:49.788Z,2.55
2023-05-09T15:06:23.433Z,2.20
2023-05-09T15:08:56.562Z,2.38
2023-05-09T15:11:33.466Z,2.20
2023-05-09T15:14:16.555Z,2.10
2023-05-09T15:16:51.756Z,2.28
2023-05-09T15:19:26.205Z,2.33
2023-05-09T15:21:59.964Z,2.78
2023-05-09T15:24:32.422Z,2.10
2023-05-09T15:27:05.103Z,2.10
2023-05-09T15:29:37.661Z,2.40
2023-05-09T15:32:10.053Z,2.60
2023-05-09T15:34:42.604Z,2.25
2023-05-09T15:37:15.085Z,2.10
2023-05-09T15:39:47.916Z,2.50
2023-05-09T15:42:20.421Z,2.65
2023-05-09T15:44:53.068Z,2.35
2023-05-09T15:47:25.589Z,3.28
2023-05-09T15:49:58.223Z,2.70
2023-05-09T15:52:30.746Z,2.67
2023-05-09T15:55:03.549Z,2.40
2023-05-09T15:57:36.080Z,2.00
2023-05-09T16:00:09.980Z,2.20
2023-05-09T16:02:44.147Z,2.00
2023-05-09T16:05:17.364Z,2.03
2023-05-09T16:07:52.999Z,2.10
2023-05-09T16:12:57.942Z,1.63
2023-05-09T16:15:30.451Z,3.05
2023-05-09T16:18:03.032Z,1.67
2023-05-09T16:20:35.459Z,1.83
2023-05-09T16:23:07.900Z,1.60
2023-05-09T16:25:40.344Z,1.60
2023-05-09T16:28:12.887Z,1.58
2023-05-09T16:30:45.358Z,1.45
2023-05-09T16:33:18.437Z,1.42
2023-05-09T16:35:51.252Z,1.67
2023-05-09T16:38:23.739Z,1.70
2023-05-09T16:40:56.286Z,2.03
2023-05-09T16:43:28.668Z,1.80
2023-05-09T16:46:01.270Z,1.90
2023-05-09T16:48:33.757Z,1.85
2023-05-09T16:51:06.180Z,2.10
2023-05-09T16:53:38.605Z,1.90
2023-05-09T16:56:11.078Z,2.00
2023-05-09T16:58:44.890Z,1.80
2023-05-09T17:01:17.511Z,2.20
2023-05-09T17:03:50.333Z,1.77
2023-05-09T17:06:22.786Z,2.30
2023-05-09T17:08:55.366Z,1.80
2023-05-09T17:11:28.413Z,1.55
2023-05-09T17:14:03.385Z,1.88
2023-05-09T17:16:37.991Z,1.85
2023-05-09T17:19:10.732Z,1.35
2023-05-09T17:21:43.430Z,1.33
2023-05-09T17:24:18.918Z,1.33
2023-05-09T17:26:52.027Z,1.67
2023-05-09T17:29:26.514Z,1.40
2023-05-09T17:32:02.868Z,1.40
2023-05-09T17:34:35.549Z,1.13
2023-05-09T17:37:09.146Z,1.20
2023-05-09T17:39:42.420Z,1.15
2023-05-09T17:42:14.847Z,1.20
2023-05-09T17:44:47.474Z,1.30
2023-05-09T17:47:19.970Z,0.98
2023-05-09T17:49:52.470Z,1.45
2023-05-09T17:52:24.938Z,1.67
2023-05-09T17:54:57.328Z,1.50
2023-05-09T17:57:29.845Z,1.45
2023-05-09T18:00:02.386Z,1.90
2023-05-09T18:02:35.390Z,1.85
2023-05-09T18:05:09.818Z,2.20
2023-05-09T18:07:42.405Z,2.10
2023-05-09T18:10:15.099Z,2.30
2023-05-09T18:12:47.969Z,2.30
2023-05-09T18:15:21.654Z,2.13
2023-05-09T18:17:57.644Z,2.53
2023-05-09T18:20:30.327Z,2.58
2023-05-09T18:23:03.288Z,2.80
2023-05-09T18:25:36.954Z,2.75
2023-05-09T18:28:09.572Z,2.72
2023-05-09T18:30:45.027Z,2.40
2023-05-09T18:33:17.558Z,2.65
2023-05-09T18:35:50.286Z,2.35
2023-05-09T18:38:22.945Z,2.92
2023-05-09T18:40:55.413Z,2.78
2023-05-09T18:43:28.973Z,2.30
2023-05-09T18:46:05.188Z,1.92
2023-05-09T18:48:39.003Z,2.05
2023-05-09T18:51:13.637Z,2.60
2023-05-09T18:53:47.682Z,2.50
2023-05-09T18:56:23.338Z,2.15
2023-05-09T18:58:55.777Z,2.50
2023-05-09T19:01:31.093Z,2.40
2023-05-09T19:04:11.349Z,2.38
2023-05-09T19:06:44.080Z,3.00
2023-05-09T19:09:19.486Z,3.00
2023-05-09T19:11:52.282Z,3.25
2023-05-09T19:14:26.320Z,3.90
2023-05-09T19:16:58.977Z,3.03
2023-05-09T19:19:31.455Z,3.38
2023-05-09T19:22:03.898Z,3.78
2023-05-09T19:24:36.820Z,3.33
2023-05-09T19:27:09.362Z,3.72
2023-05-09T19:29:41.866Z,3.42
2023-05-09T19:32:14.356Z,3.55
2023-05-09T19:34:47.348Z,4.15
2023-05-09T19:37:19.973Z,4.30
2023-05-09T19:39:52.779Z,4.05
2023-05-09T19:42:25.496Z,4.15
2023-05-09T19:44:57.987Z,4.30
2023-05-09T19:47:33.264Z,4.38
2023-05-09T19:50:06.418Z,5.00
2023-05-09T19:52:38.875Z,4.80
2023-05-09T19:55:11.653Z,5.10
2023-05-09T19:57:44.118Z,5.05
2023-05-09T20:00:17.956Z,5.50
2023-05-09T20:02:53.716Z,4.60
2023-05-09T20:05:42.374Z,5.32
2023-05-09T20:08:14.914Z,5.13
2023-05-09T20:10:47.622Z,5.20
2023-05-09T20:13:22.961Z,4.75
2023-05-09T20:15:55.568Z,5.70
2023-05-09T20:18:28.392Z,5.03
2023-05-09T20:21:01.451Z,5.65
2023-05-09T20:23:34.094Z,5.63
2023-05-09T20:26:06.617Z,5.18
2023-05-09T20:28:39.213Z,5.65
2023-05-09T20:31:11.896Z,5.68
2023-05-09T20:33:44.448Z,5.90
2023-05-09T20:36:16.972Z,5.65
2023-05-09T20:38:49.967Z,5.60
2023-05-09T20:41:24.874Z,5.50
2023-05-09T20:44:03.401Z,5.95
2023-05-09T20:46:36.591Z,5.40
2023-05-09T20:49:09.494Z,5.28
2023-05-09T20:51:43.496Z,5.47
2023-05-09T20:54:17.101Z,5.45
2023-05-09T20:56:52.034Z,5.43
2023-05-09T20:59:24.624Z,5.72
2023-05-09T21:01:57.509Z,5.78
2023-05-09T21:04:30.012Z,4.95
2023-05-09T21:07:02.519Z,5.88
2023-05-09T21:09:35.086Z,5.22
2023-05-09T21:12:10.502Z,5.55
2023-05-09T21:14:44.833Z,5.38
2023-05-09T21:17:17.871Z,5.35
2023-05-09T21:19:51.845Z,5.47
2023-05-09T21:22:24.412Z,4.93
2023-05-09T21:24:56.884Z,4.45
2023-05-09T21:27:32.679Z,4.90
2023-05-09T21:32:37.899Z,4.57
2023-05-09T21:35:12.659Z,4.70
2023-05-09T21:37:46.220Z,4.57
2023-05-09T21:40:18.960Z,5.05
2023-05-09T21:42:51.460Z,4.22
2023-05-09T21:45:24.222Z,4.70
2023-05-09T21:47:56.847Z,3.85
2023-05-09T21:50:29.516Z,3.65
2023-05-09T21:53:02.046Z,3.85
2023-05-09T21:55:34.585Z,3.70
2023-05-09T21:58:07.133Z,3.38
2023-05-09T22:00:39.561Z,3.35
2023-05-09T22:03:12.088Z,3.63
2023-05-09T22:05:44.898Z,4.28
2023-05-09T22:08:17.448Z,3.95
2023-05-09T22:10:49.978Z,4.00
2023-05-09T22:13:22.581Z,4.15
2023-05-09T22:15:55.488Z,4.82
2023-05-09T22:18:27.988Z,4.78
2023-05-09T22:21:00.808Z,5.25
2023-05-09T22:23:33.273Z,5.20
2023-05-09T22:26:05.808Z,4.63
2023-05-09T22:28:38.248Z,5.78
2023-05-09T22:31:10.725Z,5.53
2023-05-09T22:33:43.200Z,5.25
2023-05-09T22:36:16.812Z,5.45
2023-05-09T22:38:49.254Z,4.72
2023-05-09T22:41:22.738Z,5.18
2023-05-09T22:43:55.180Z,5.10
2023-05-09T22:46:28.178Z,4.93
2023-05-09T22:49:00.722Z,4.68
2023-05-09T22:51:33.534Z,4.78
2023-05-09T22:54:06.261Z,5.10
2023-05-09T22:56:38.785Z,4.40
2023-05-09T22:59:11.259Z,4.32
2023-05-09T23:01:43.856Z,4.72
2023-05-09T23:04:16.454Z,4.97
2023-05-09T23:06:48.969Z,4.78
2023-05-09T23:09:22.216Z,4.80
2023-05-09T23:11:55.097Z,4.72
2023-05-09T23:14:27.552Z,4.68
2023-05-09T23:16:59.974Z,4.65
2023-05-09T23:19:32.787Z,4.43
2023-05-09T23:22:05.321Z,4.00
2023-05-09T23:24:37.922Z,4.47
2023-05-09T23:27:10.408Z,4.00
2023-05-09T23:29:43.448Z,4.53
2023-05-09T23:32:15.840Z,4.78
2023-05-09T23:34:48.308Z,3.95
2023-05-09T23:37:21.165Z,4.10
2023-05-09T23:39:53.621Z,4.20
2023-05-09T23:42:26.079Z,4.43
2023-05-09T23:44:59.696Z,4.80
2023-05-09T23:47:32.179Z,4.57
2023-05-09T23:50:05.058Z,5.00
2023-05-09T23:52:37.572Z,4.47
2023-05-09T23:55:10.114Z,5.10
2023-05-09T23:57:42.572Z,4.78
